createdAt,value
2023-03-03T00:00:36.300Z,26.80
2023-03-03T00:03:18.182Z,31.43
2023-03-03T00:10:24.073Z,30.53
2023-03-03T00:13:02.306Z,33.03
2023-03-03T00:15:43.855Z,37.77
2023-03-03T00:18:40.622Z,31.87
2023-03-03T00:21:32.465Z,31.13
2023-03-03T00:24:25.830Z,30.27
2023-03-03T00:32:47.782Z,36.17
2023-03-03T00:35:36.408Z,37.77
2023-03-03T00:38:21.811Z,40.03
2023-03-03T00:41:05.665Z,37.80
2023-03-03T00:43:43.666Z,40.87
2023-03-03T00:46:23.887Z,41.93
2023-03-03T00:48:57.319Z,34.77
2023-03-03T00:56:42.322Z,36.63
2023-03-03T00:59:13.886Z,39.93
2023-03-03T01:01:53.716Z,36.10
2023-03-03T01:04:30.500Z,38.17
2023-03-03T01:07:08.612Z,37.30
2023-03-03T01:09:59.509Z,40.13
2023-03-03T01:12:31.284Z,34.43
2023-03-03T01:15:08.653Z,40.10
2023-03-03T01:22:53.239Z,41.70
2023-03-03T01:25:29.103Z,43.37
2023-03-03T01:28:05.697Z,38.40
2023-03-03T01:30:38.874Z,51.27
2023-03-03T01:33:12.292Z,42.30
2023-03-03T01:35:52.701Z,44.53
2023-03-03T01:38:38.234Z,44.90
2023-03-03T01:44:09.177Z,50.07
2023-03-03T01:47:02.064Z,44.63
2023-03-03T01:49:40.549Z,41.60
2023-03-03T01:52:33.869Z,47.87
2023-03-03T01:55:36.791Z,48.03
2023-03-03T01:58:20.651Z,45.93
2023-03-03T02:00:56.182Z,50.83
2023-03-03T02:08:38.533Z,65.03
2023-03-03T02:11:16.148Z,59.37
2023-03-03T02:13:48.389Z,53.10
2023-03-03T02:16:25.626Z,56.10
2023-03-03T02:18:57.568Z,54.17
2023-03-03T02:21:31.547Z,54.50
2023-03-03T02:27:23.722Z,54.57
2023-03-03T02:29:57.509Z,55.37
2023-03-03T02:32:29.075Z,51.37
2023-03-03T02:35:00.197Z,55.07
2023-03-03T02:37:32.462Z,59.10
2023-03-03T02:40:03.510Z,62.43
2023-03-03T02:45:49.154Z,56.60
2023-03-03T02:48:24.258Z,62.73
2023-03-03T02:50:56.621Z,58.63
2023-03-03T02:53:28.825Z,63.07
2023-03-03T02:56:10.162Z,63.87
2023-03-03T02:58:40.502Z,58.63
2023-03-03T03:01:14.372Z,64.67
2023-03-03T03:08:01.134Z,72.87
2023-03-03T03:10:31.367Z,68.90
2023-03-03T03:13:03.022Z,69.27
2023-03-03T03:15:35.499Z,64.00
2023-03-03T03:18:14.921Z,61.13
2023-03-03T03:20:48.389Z,70.77
2023-03-03T03:23:24.177Z,65.33
2023-03-03T03:32:06.241Z,71.63
2023-03-03T03:34:46.267Z,65.60
2023-03-03T03:37:24.286Z,66.97
2023-03-03T03:40:02.089Z,72.13
2023-03-03T03:42:37.004Z,66.20
2023-03-03T03:45:13.184Z,63.43
2023-03-03T03:47:44.012Z,66.77
2023-03-03T03:50:39.731Z,65.30
2023-03-03T03:53:14.067Z,74.40
2023-03-03T03:56:25.535Z,66.13
2023-03-03T04:04:38.312Z,71.70
2023-03-03T04:07:20.630Z,74.30
2023-03-03T04:10:11.627Z,65.87
2023-03-03T04:12:48.319Z,73.10
2023-03-03T04:15:37.069Z,67.37
2023-03-03T04:18:35.935Z,77.37
2023-03-03T04:21:22.887Z,100.27
2023-03-03T04:32:04.227Z,135.00
2023-03-03T04:34:58.762Z,80.97
2023-03-03T04:37:57.658Z,78.40
2023-03-03T04:40:36.888Z,185.70
2023-03-03T04:43:25.496Z,200.67
2023-03-03T04:46:07.011Z,371.73
2023-03-03T04:49:23.683Z,460.63
2023-03-03T04:52:52.969Z,231.80
2023-03-03T04:55:44.852Z,233.77
2023-03-03T04:58:41.958Z,455.87
2023-03-03T05:01:23.966Z,164.80
